Azuqueca de Henares, Spain
Current Conditions -  °F | °C
As of 1:00 AM on Monday 22 Dec 2014 (Local Time) from LETO Reporting Station
Clear Clear  
Wind Chill:   Ceiling: Unl
Heat Index:   Visibility: 6mi
Dew Point:   Wind: 3mph
Humidity: 87%   Direction: 40°NE
Pressure: 30.48"   Gusts: NA
Location:  40.57°N, 3.26°W
Report Text: LETO 220000Z 04003KT CAVOK 02/00 Q1032 NOSIG
Loading
Personal Weather Stations






























Interactive Weather Map New forecast layout! Learn more

10-Day Weather Forecast

Advertisements
Track Severe Weather on mobile